sensor_id;sensor_type;location;lat;lon;timestamp;P1;durP1;ratioP1;P2;durP2;ratioP2
4839;SDS011;2434;48.486;7.964;2023-08-24T00:00:57;7.30;;;3.80;;
4839;SDS011;2434;48.486;7.964;2023-08-24T00:03:25;6.27;;;4.60;;
4839;SDS011;2434;48.486;7.964;2023-08-24T00:05:54;4.67;;;4.10;;
4839;SDS011;2434;48.486;7.964;2023-08-24T00:08:22;4.60;;;4.10;;
4839;SDS011;2434;48.486;7.964;2023-08-24T00:10:50;5.00;;;3.97;;
4839;SDS011;2434;48.486;7.964;2023-08-24T00:13:18;5.63;;;4.30;;
4839;SDS011;2434;48.486;7.964;2023-08-24T00:15:48;5.10;;;4.40;;
4839;SDS011;2434;48.486;7.964;2023-08-24T00:18:16;10.43;;;4.47;;
4839;SDS011;2434;48.486;7.964;2023-08-24T00:20:45;6.37;;;4.30;;
4839;SDS011;2434;48.486;7.964;2023-08-24T00:23:14;7.90;;;4.57;;
4839;SDS011;2434;48.486;7.964;2023-08-24T00:25:42;5.20;;;3.93;;
4839;SDS011;2434;48.486;7.964;2023-08-24T00:28:10;6.50;;;4.80;;
4839;SDS011;2434;48.486;7.964;2023-08-24T00:30:39;6.70;;;4.20;;
4839;SDS011;2434;48.486;7.964;2023-08-24T00:33:09;5.20;;;4.27;;
4839;SDS011;2434;48.486;7.964;2023-08-24T00:35:37;7.67;;;4.27;;
4839;SDS011;2434;48.486;7.964;2023-08-24T00:38:05;5.30;;;4.80;;
4839;SDS011;2434;48.486;7.964;2023-08-24T00:40:33;6.93;;;3.90;;
4839;SDS011;2434;48.486;7.964;2023-08-24T00:43:02;8.53;;;5.13;;
4839;SDS011;2434;48.486;7.964;2023-08-24T00:45:31;6.53;;;4.43;;
4839;SDS011;2434;48.486;7.964;2023-08-24T00:48:01;9.20;;;4.83;;
4839;SDS011;2434;48.486;7.964;2023-08-24T00:50:31;5.37;;;4.30;;
4839;SDS011;2434;48.486;7.964;2023-08-24T00:53:00;4.77;;;4.37;;
4839;SDS011;2434;48.486;7.964;2023-08-24T00:55:29;7.07;;;4.60;;
4839;SDS011;2434;48.486;7.964;2023-08-24T00:57:58;7.90;;;5.07;;
4839;SDS011;2434;48.486;7.964;2023-08-24T01:00:27;6.27;;;5.00;;
4839;SDS011;2434;48.486;7.964;2023-08-24T01:02:56;7.23;;;4.90;;
4839;SDS011;2434;48.486;7.964;2023-08-24T01:05:24;7.57;;;5.23;;
4839;SDS011;2434;48.486;7.964;2023-08-24T01:07:54;6.43;;;4.50;;
4839;SDS011;2434;48.486;7.964;2023-08-24T01:10:22;8.40;;;4.93;;
4839;SDS011;2434;48.486;7.964;2023-08-24T01:12:57;9.10;;;4.13;;
4839;SDS011;2434;48.486;7.964;2023-08-24T01:15:32;5.63;;;4.53;;
4839;SDS011;2434;48.486;7.964;2023-08-24T01:18:07;7.70;;;4.57;;
4839;SDS011;2434;48.486;7.964;2023-08-24T01:20:40;5.57;;;5.00;;
4839;SDS011;2434;48.486;7.964;2023-08-24T01:23:17;6.07;;;4.60;;
4839;SDS011;2434;48.486;7.964;2023-08-24T01:26:02;6.37;;;4.93;;
4839;SDS011;2434;48.486;7.964;2023-08-24T01:28:35;7.07;;;4.10;;
4839;SDS011;2434;48.486;7.964;2023-08-24T01:31:06;7.10;;;5.13;;
4839;SDS011;2434;48.486;7.964;2023-08-24T01:33:34;5.40;;;4.50;;
4839;SDS011;2434;48.486;7.964;2023-08-24T01:36:03;6.10;;;4.30;;
4839;SDS011;2434;48.486;7.964;2023-08-24T01:38:31;7.10;;;5.03;;
4839;SDS011;2434;48.486;7.964;2023-08-24T01:41:04;6.63;;;4.60;;
4839;SDS011;2434;48.486;7.964;2023-08-24T01:43:39;9.73;;;4.60;;
4839;SDS011;2434;48.486;7.964;2023-08-24T01:46:11;7.67;;;4.57;;
4839;SDS011;2434;48.486;7.964;2023-08-24T01:48:43;6.03;;;4.70;;
4839;SDS011;2434;48.486;7.964;2023-08-24T01:51:13;6.37;;;4.60;;
4839;SDS011;2434;48.486;7.964;2023-08-24T01:53:42;11.40;;;4.23;;
4839;SDS011;2434;48.486;7.964;2023-08-24T01:56:12;7.10;;;4.80;;
4839;SDS011;2434;48.486;7.964;2023-08-24T01:58:42;6.73;;;4.90;;
4839;SDS011;2434;48.486;7.964;2023-08-24T02:01:11;8.90;;;4.37;;
4839;SDS011;2434;48.486;7.964;2023-08-24T02:03:40;7.27;;;4.60;;
4839;SDS011;2434;48.486;7.964;2023-08-24T02:06:09;7.00;;;4.90;;
4839;SDS011;2434;48.486;7.964;2023-08-24T02:08:37;7.07;;;4.37;;
4839;SDS011;2434;48.486;7.964;2023-08-24T02:11:05;5.30;;;4.80;;
4839;SDS011;2434;48.486;7.964;2023-08-24T02:13:36;6.30;;;4.90;;
4839;SDS011;2434;48.486;7.964;2023-08-24T02:16:05;9.57;;;5.10;;
4839;SDS011;2434;48.486;7.964;2023-08-24T02:18:36;5.43;;;4.40;;
4839;SDS011;2434;48.486;7.964;2023-08-24T02:21:07;8.00;;;4.73;;
4839;SDS011;2434;48.486;7.964;2023-08-24T02:23:38;4.80;;;4.10;;
4839;SDS011;2434;48.486;7.964;2023-08-24T02:26:07;11.53;;;5.40;;
4839;SDS011;2434;48.486;7.964;2023-08-24T02:28:37;9.00;;;4.70;;
4839;SDS011;2434;48.486;7.964;2023-08-24T02:31:08;5.80;;;5.20;;
4839;SDS011;2434;48.486;7.964;2023-08-24T02:33:37;7.07;;;4.90;;
4839;SDS011;2434;48.486;7.964;2023-08-24T02:36:05;8.57;;;5.63;;
4839;SDS011;2434;48.486;7.964;2023-08-24T02:38:34;8.43;;;5.10;;
4839;SDS011;2434;48.486;7.964;2023-08-24T02:41:03;6.47;;;4.30;;
4839;SDS011;2434;48.486;7.964;2023-08-24T02:43:33;5.83;;;4.33;;
4839;SDS011;2434;48.486;7.964;2023-08-24T02:46:05;7.53;;;4.20;;
4839;SDS011;2434;48.486;7.964;2023-08-24T02:48:34;7.83;;;4.50;;
4839;SDS011;2434;48.486;7.964;2023-08-24T02:51:04;7.37;;;5.03;;
4839;SDS011;2434;48.486;7.964;2023-08-24T02:53:32;10.00;;;5.23;;
4839;SDS011;2434;48.486;7.964;2023-08-24T02:56:01;13.13;;;5.67;;
4839;SDS011;2434;48.486;7.964;2023-08-24T02:58:29;6.10;;;4.70;;
4839;SDS011;2434;48.486;7.964;2023-08-24T03:00:58;6.40;;;5.17;;
4839;SDS011;2434;48.486;7.964;2023-08-24T03:03:28;8.07;;;5.40;;
4839;SDS011;2434;48.486;7.964;2023-08-24T03:05:57;5.60;;;5.10;;
4839;SDS011;2434;48.486;7.964;2023-08-24T03:08:28;8.43;;;5.53;;
4839;SDS011;2434;48.486;7.964;2023-08-24T03:10:57;6.60;;;4.30;;
4839;SDS011;2434;48.486;7.964;2023-08-24T03:13:26;7.97;;;5.00;;
4839;SDS011;2434;48.486;7.964;2023-08-24T03:15:55;7.63;;;5.00;;
4839;SDS011;2434;48.486;7.964;2023-08-24T03:18:29;8.63;;;5.03;;
4839;SDS011;2434;48.486;7.964;2023-08-24T03:20:57;6.43;;;5.00;;
4839;SDS011;2434;48.486;7.964;2023-08-24T03:23:26;7.70;;;5.20;;
4839;SDS011;2434;48.486;7.964;2023-08-24T03:25:54;7.10;;;5.00;;
4839;SDS011;2434;48.486;7.964;2023-08-24T03:28:24;9.53;;;5.30;;
4839;SDS011;2434;48.486;7.964;2023-08-24T03:30:52;6.73;;;5.60;;
4839;SDS011;2434;48.486;7.964;2023-08-24T03:33:22;18.00;;;5.80;;
4839;SDS011;2434;48.486;7.964;2023-08-24T03:35:52;6.30;;;5.10;;
4839;SDS011;2434;48.486;7.964;2023-08-24T03:38:20;6.40;;;5.23;;
4839;SDS011;2434;48.486;7.964;2023-08-24T03:40:50;7.37;;;5.73;;
4839;SDS011;2434;48.486;7.964;2023-08-24T03:43:18;6.97;;;5.77;;
4839;SDS011;2434;48.486;7.964;2023-08-24T03:45:47;10.63;;;7.73;;
4839;SDS011;2434;48.486;7.964;2023-08-24T03:48:15;7.37;;;5.90;;
4839;SDS011;2434;48.486;7.964;2023-08-24T03:50:44;10.03;;;6.07;;
4839;SDS011;2434;48.486;7.964;2023-08-24T03:53:14;10.47;;;5.87;;
4839;SDS011;2434;48.486;7.964;2023-08-24T03:55:46;10.60;;;5.90;;
4839;SDS011;2434;48.486;7.964;2023-08-24T03:58:17;6.53;;;5.40;;
4839;SDS011;2434;48.486;7.964;2023-08-24T04:00:45;7.47;;;5.77;;
4839;SDS011;2434;48.486;7.964;2023-08-24T04:03:14;10.53;;;5.40;;
4839;SDS011;2434;48.486;7.964;2023-08-24T04:05:43;7.53;;;5.40;;
4839;SDS011;2434;48.486;7.964;2023-08-24T04:08:12;7.80;;;5.40;;
4839;SDS011;2434;48.486;7.964;2023-08-24T04:10:41;8.80;;;6.23;;
4839;SDS011;2434;48.486;7.964;2023-08-24T04:13:10;7.13;;;5.93;;
4839;SDS011;2434;48.486;7.964;2023-08-24T04:15:38;5.83;;;5.23;;
4839;SDS011;2434;48.486;7.964;2023-08-24T04:18:06;8.07;;;5.33;;
4839;SDS011;2434;48.486;7.964;2023-08-24T04:20:34;7.23;;;5.60;;
4839;SDS011;2434;48.486;7.964;2023-08-24T04:23:03;12.30;;;6.33;;
4839;SDS011;2434;48.486;7.964;2023-08-24T04:25:35;9.80;;;6.17;;
4839;SDS011;2434;48.486;7.964;2023-08-24T04:28:06;7.80;;;6.50;;
4839;SDS011;2434;48.486;7.964;2023-08-24T04:30:34;10.43;;;6.53;;
4839;SDS011;2434;48.486;7.964;2023-08-24T04:33:03;11.10;;;6.50;;
4839;SDS011;2434;48.486;7.964;2023-08-24T04:35:33;12.20;;;6.40;;
4839;SDS011;2434;48.486;7.964;2023-08-24T04:38:02;11.83;;;6.93;;
4839;SDS011;2434;48.486;7.964;2023-08-24T04:40:42;10.40;;;6.87;;
4839;SDS011;2434;48.486;7.964;2023-08-24T04:43:17;8.43;;;7.43;;
4839;SDS011;2434;48.486;7.964;2023-08-24T04:45:46;8.80;;;7.50;;
4839;SDS011;2434;48.486;7.964;2023-08-24T04:48:15;9.67;;;7.40;;
4839;SDS011;2434;48.486;7.964;2023-08-24T04:50:43;9.60;;;6.80;;
4839;SDS011;2434;48.486;7.964;2023-08-24T04:53:13;9.50;;;7.80;;
4839;SDS011;2434;48.486;7.964;2023-08-24T04:55:43;7.50;;;6.80;;
4839;SDS011;2434;48.486;7.964;2023-08-24T04:58:13;11.40;;;7.63;;
4839;SDS011;2434;48.486;7.964;2023-08-24T05:00:42;11.53;;;7.30;;
4839;SDS011;2434;48.486;7.964;2023-08-24T05:03:10;12.37;;;8.50;;
4839;SDS011;2434;48.486;7.964;2023-08-24T05:05:40;9.20;;;7.43;;
4839;SDS011;2434;48.486;7.964;2023-08-24T05:08:08;11.73;;;7.07;;
4839;SDS011;2434;48.486;7.964;2023-08-24T05:10:39;11.83;;;7.37;;
4839;SDS011;2434;48.486;7.964;2023-08-24T05:13:07;11.27;;;7.73;;
4839;SDS011;2434;48.486;7.964;2023-08-24T05:15:37;10.80;;;7.23;;
4839;SDS011;2434;48.486;7.964;2023-08-24T05:18:05;11.23;;;6.73;;
4839;SDS011;2434;48.486;7.964;2023-08-24T05:20:34;13.87;;;7.87;;
4839;SDS011;2434;48.486;7.964;2023-08-24T05:23:02;14.53;;;9.03;;
4839;SDS011;2434;48.486;7.964;2023-08-24T05:25:30;11.93;;;8.90;;
4839;SDS011;2434;48.486;7.964;2023-08-24T05:28:00;10.20;;;8.83;;
4839;SDS011;2434;48.486;7.964;2023-08-24T05:30:29;10.30;;;8.67;;
4839;SDS011;2434;48.486;7.964;2023-08-24T05:32:59;15.07;;;8.63;;
4839;SDS011;2434;48.486;7.964;2023-08-24T05:35:27;13.37;;;9.77;;
4839;SDS011;2434;48.486;7.964;2023-08-24T05:37:56;7.70;;;6.80;;
4839;SDS011;2434;48.486;7.964;2023-08-24T05:40:24;11.60;;;8.20;;
4839;SDS011;2434;48.486;7.964;2023-08-24T05:42:52;8.77;;;7.50;;
4839;SDS011;2434;48.486;7.964;2023-08-24T05:45:21;8.63;;;7.50;;
4839;SDS011;2434;48.486;7.964;2023-08-24T05:47:52;11.80;;;9.07;;
4839;SDS011;2434;48.486;7.964;2023-08-24T05:50:22;12.60;;;9.27;;
4839;SDS011;2434;48.486;7.964;2023-08-24T05:52:50;12.97;;;9.87;;
4839;SDS011;2434;48.486;7.964;2023-08-24T05:55:20;9.60;;;8.80;;
4839;SDS011;2434;48.486;7.964;2023-08-24T05:57:48;12.13;;;10.07;;
4839;SDS011;2434;48.486;7.964;2023-08-24T06:00:17;22.63;;;12.30;;
4839;SDS011;2434;48.486;7.964;2023-08-24T06:02:48;16.83;;;11.97;;
4839;SDS011;2434;48.486;7.964;2023-08-24T06:05:17;15.63;;;12.27;;
4839;SDS011;2434;48.486;7.964;2023-08-24T06:07:47;16.13;;;10.97;;
4839;SDS011;2434;48.486;7.964;2023-08-24T06:10:16;17.63;;;11.50;;
4839;SDS011;2434;48.486;7.964;2023-08-24T06:12:44;11.63;;;9.93;;
4839;SDS011;2434;48.486;7.964;2023-08-24T06:15:13;11.13;;;9.13;;
4839;SDS011;2434;48.486;7.964;2023-08-24T06:17:42;16.13;;;9.40;;
4839;SDS011;2434;48.486;7.964;2023-08-24T06:20:10;11.80;;;8.80;;
4839;SDS011;2434;48.486;7.964;2023-08-24T06:22:40;12.80;;;8.93;;
4839;SDS011;2434;48.486;7.964;2023-08-24T06:25:10;9.27;;;7.40;;
4839;SDS011;2434;48.486;7.964;2023-08-24T06:27:38;10.57;;;9.23;;
4839;SDS011;2434;48.486;7.964;2023-08-24T06:30:06;9.83;;;8.83;;
4839;SDS011;2434;48.486;7.964;2023-08-24T06:32:35;11.80;;;9.33;;
4839;SDS011;2434;48.486;7.964;2023-08-24T06:35:04;13.10;;;8.60;;
4839;SDS011;2434;48.486;7.964;2023-08-24T06:37:33;10.37;;;8.77;;
4839;SDS011;2434;48.486;7.964;2023-08-24T06:40:01;10.30;;;8.57;;
4839;SDS011;2434;48.486;7.964;2023-08-24T06:42:33;11.90;;;9.40;;
4839;SDS011;2434;48.486;7.964;2023-08-24T06:45:01;8.70;;;7.90;;
4839;SDS011;2434;48.486;7.964;2023-08-24T06:47:29;11.63;;;9.30;;
4839;SDS011;2434;48.486;7.964;2023-08-24T06:49:58;10.00;;;8.80;;
4839;SDS011;2434;48.486;7.964;2023-08-24T06:52:26;10.33;;;9.00;;
4839;SDS011;2434;48.486;7.964;2023-08-24T06:54:54;9.60;;;8.37;;
4839;SDS011;2434;48.486;7.964;2023-08-24T06:57:23;15.43;;;9.20;;
4839;SDS011;2434;48.486;7.964;2023-08-24T06:59:53;10.97;;;8.00;;
4839;SDS011;2434;48.486;7.964;2023-08-24T07:02:21;10.30;;;8.20;;
4839;SDS011;2434;48.486;7.964;2023-08-24T07:04:49;11.13;;;9.30;;
4839;SDS011;2434;48.486;7.964;2023-08-24T07:07:18;8.90;;;7.63;;
4839;SDS011;2434;48.486;7.964;2023-08-24T07:09:46;11.00;;;8.30;;
4839;SDS011;2434;48.486;7.964;2023-08-24T07:12:15;12.07;;;8.13;;
4839;SDS011;2434;48.486;7.964;2023-08-24T07:14:43;9.00;;;8.10;;
4839;SDS011;2434;48.486;7.964;2023-08-24T07:17:13;15.30;;;9.10;;
4839;SDS011;2434;48.486;7.964;2023-08-24T07:19:41;9.73;;;8.60;;
4839;SDS011;2434;48.486;7.964;2023-08-24T07:22:09;9.90;;;7.70;;
4839;SDS011;2434;48.486;7.964;2023-08-24T07:24:38;9.90;;;8.37;;
4839;SDS011;2434;48.486;7.964;2023-08-24T07:27:12;12.97;;;9.77;;
4839;SDS011;2434;48.486;7.964;2023-08-24T07:29:40;12.57;;;9.87;;
4839;SDS011;2434;48.486;7.964;2023-08-24T07:32:09;12.70;;;8.63;;
4839;SDS011;2434;48.486;7.964;2023-08-24T07:34:38;12.47;;;8.23;;
4839;SDS011;2434;48.486;7.964;2023-08-24T07:37:07;13.93;;;9.73;;
4839;SDS011;2434;48.486;7.964;2023-08-24T07:39:35;11.10;;;8.97;;
4839;SDS011;2434;48.486;7.964;2023-08-24T07:42:05;11.63;;;8.47;;
4839;SDS011;2434;48.486;7.964;2023-08-24T07:44:33;16.13;;;9.00;;
4839;SDS011;2434;48.486;7.964;2023-08-24T07:47:02;12.20;;;9.37;;
4839;SDS011;2434;48.486;7.964;2023-08-24T07:49:30;11.97;;;9.53;;
4839;SDS011;2434;48.486;7.964;2023-08-24T07:52:00;14.80;;;9.60;;
4839;SDS011;2434;48.486;7.964;2023-08-24T07:54:28;13.30;;;10.50;;
4839;SDS011;2434;48.486;7.964;2023-08-24T07:56:57;11.87;;;8.63;;
4839;SDS011;2434;48.486;7.964;2023-08-24T07:59:25;17.57;;;9.93;;
4839;SDS011;2434;48.486;7.964;2023-08-24T08:01:53;15.70;;;9.07;;
4839;SDS011;2434;48.486;7.964;2023-08-24T08:04:22;20.40;;;9.60;;
4839;SDS011;2434;48.486;7.964;2023-08-24T08:06:50;10.40;;;8.67;;
4839;SDS011;2434;48.486;7.964;2023-08-24T08:09:21;15.37;;;9.93;;
4839;SDS011;2434;48.486;7.964;2023-08-24T08:11:49;11.00;;;7.97;;
4839;SDS011;2434;48.486;7.964;2023-08-24T08:14:18;9.03;;;8.07;;
4839;SDS011;2434;48.486;7.964;2023-08-24T08:16:47;13.07;;;9.60;;
4839;SDS011;2434;48.486;7.964;2023-08-24T08:19:15;9.60;;;8.57;;
4839;SDS011;2434;48.486;7.964;2023-08-24T08:21:45;10.50;;;8.47;;
4839;SDS011;2434;48.486;7.964;2023-08-24T08:24:13;9.90;;;7.70;;
4839;SDS011;2434;48.486;7.964;2023-08-24T08:26:51;9.67;;;8.60;;
4839;SDS011;2434;48.486;7.964;2023-08-24T08:29:20;14.03;;;8.60;;
4839;SDS011;2434;48.486;7.964;2023-08-24T08:31:48;12.43;;;9.57;;
4839;SDS011;2434;48.486;7.964;2023-08-24T08:34:17;14.47;;;8.80;;
4839;SDS011;2434;48.486;7.964;2023-08-24T08:36:45;11.90;;;8.80;;
4839;SDS011;2434;48.486;7.964;2023-08-24T08:39:13;13.47;;;8.07;;
4839;SDS011;2434;48.486;7.964;2023-08-24T08:41:44;13.60;;;8.40;;
4839;SDS011;2434;48.486;7.964;2023-08-24T08:44:15;10.40;;;8.37;;
4839;SDS011;2434;48.486;7.964;2023-08-24T08:46:44;16.73;;;8.83;;
4839;SDS011;2434;48.486;7.964;2023-08-24T08:49:15;10.60;;;7.97;;
4839;SDS011;2434;48.486;7.964;2023-08-24T08:51:45;13.10;;;7.63;;
4839;SDS011;2434;48.486;7.964;2023-08-24T08:54:14;19.40;;;8.40;;
4839;SDS011;2434;48.486;7.964;2023-08-24T08:56:42;10.10;;;7.60;;
4839;SDS011;2434;48.486;7.964;2023-08-24T08:59:11;9.97;;;6.87;;
4839;SDS011;2434;48.486;7.964;2023-08-24T09:01:43;12.67;;;8.43;;
4839;SDS011;2434;48.486;7.964;2023-08-24T09:04:14;16.20;;;7.83;;
4839;SDS011;2434;48.486;7.964;2023-08-24T09:06:42;10.70;;;8.23;;
4839;SDS011;2434;48.486;7.964;2023-08-24T09:09:11;11.30;;;7.50;;
4839;SDS011;2434;48.486;7.964;2023-08-24T09:11:40;15.10;;;7.57;;
4839;SDS011;2434;48.486;7.964;2023-08-24T09:14:09;13.30;;;8.00;;
4839;SDS011;2434;48.486;7.964;2023-08-24T09:16:38;15.10;;;8.40;;
4839;SDS011;2434;48.486;7.964;2023-08-24T09:19:10;9.40;;;7.27;;
4839;SDS011;2434;48.486;7.964;2023-08-24T09:21:40;10.80;;;7.73;;
4839;SDS011;2434;48.486;7.964;2023-08-24T09:24:09;11.63;;;7.50;;
4839;SDS011;2434;48.486;7.964;2023-08-24T09:26:38;13.60;;;7.67;;
4839;SDS011;2434;48.486;7.964;2023-08-24T09:29:12;9.73;;;7.50;;
4839;SDS011;2434;48.486;7.964;2023-08-24T09:31:43;9.63;;;7.27;;
4839;SDS011;2434;48.486;7.964;2023-08-24T09:34:11;16.80;;;7.10;;
4839;SDS011;2434;48.486;7.964;2023-08-24T09:36:41;9.40;;;7.10;;
4839;SDS011;2434;48.486;7.964;2023-08-24T09:39:12;7.57;;;6.77;;
4839;SDS011;2434;48.486;7.964;2023-08-24T09:41:46;9.60;;;7.27;;
4839;SDS011;2434;48.486;7.964;2023-08-24T09:44:16;8.60;;;6.50;;
4839;SDS011;2434;48.486;7.964;2023-08-24T09:46:46;9.27;;;7.23;;
4839;SDS011;2434;48.486;7.964;2023-08-24T09:49:14;9.60;;;6.97;;
4839;SDS011;2434;48.486;7.964;2023-08-24T09:51:43;8.37;;;6.70;;
4839;SDS011;2434;48.486;7.964;2023-08-24T09:54:12;8.10;;;6.83;;
4839;SDS011;2434;48.486;7.964;2023-08-24T09:56:47;9.67;;;7.57;;
4839;SDS011;2434;48.486;7.964;2023-08-24T09:59:17;10.10;;;6.53;;
4839;SDS011;2434;48.486;7.964;2023-08-24T10:01:50;10.00;;;7.20;;
4839;SDS011;2434;48.486;7.964;2023-08-24T10:04:22;13.53;;;7.70;;
4839;SDS011;2434;48.486;7.964;2023-08-24T10:06:52;8.30;;;7.00;;
4839;SDS011;2434;48.486;7.964;2023-08-24T10:09:25;8.30;;;6.63;;
4839;SDS011;2434;48.486;7.964;2023-08-24T10:11:59;15.10;;;6.83;;
4839;SDS011;2434;48.486;7.964;2023-08-24T10:14:31;14.93;;;7.10;;
4839;SDS011;2434;48.486;7.964;2023-08-24T10:17:05;9.30;;;7.60;;
4839;SDS011;2434;48.486;7.964;2023-08-24T10:19:35;7.40;;;6.70;;
4839;SDS011;2434;48.486;7.964;2023-08-24T10:22:03;8.43;;;6.60;;
4839;SDS011;2434;48.486;7.964;2023-08-24T10:24:33;12.37;;;6.43;;
4839;SDS011;2434;48.486;7.964;2023-08-24T10:27:02;11.83;;;7.67;;
4839;SDS011;2434;48.486;7.964;2023-08-24T10:29:32;8.50;;;6.47;;
4839;SDS011;2434;48.486;7.964;2023-08-24T10:32:00;9.73;;;6.90;;
4839;SDS011;2434;48.486;7.964;2023-08-24T10:34:31;9.33;;;6.43;;
4839;SDS011;2434;48.486;7.964;2023-08-24T10:37:06;7.83;;;7.03;;
4839;SDS011;2434;48.486;7.964;2023-08-24T10:39:36;9.13;;;6.53;;
4839;SDS011;2434;48.486;7.964;2023-08-24T10:42:05;14.10;;;6.73;;
4839;SDS011;2434;48.486;7.964;2023-08-24T10:44:38;7.80;;;6.80;;
4839;SDS011;2434;48.486;7.964;2023-08-24T10:47:10;7.37;;;6.40;;
4839;SDS011;2434;48.486;7.964;2023-08-24T10:49:40;9.57;;;7.10;;
4839;SDS011;2434;48.486;7.964;2023-08-24T10:52:19;13.97;;;7.07;;
4839;SDS011;2434;48.486;7.964;2023-08-24T10:54:49;13.07;;;6.87;;
4839;SDS011;2434;48.486;7.964;2023-08-24T10:57:18;9.30;;;6.67;;
4839;SDS011;2434;48.486;7.964;2023-08-24T10:59:57;12.40;;;6.90;;
4839;SDS011;2434;48.486;7.964;2023-08-24T11:02:27;9.80;;;6.37;;
4839;SDS011;2434;48.486;7.964;2023-08-24T11:05:15;10.03;;;7.13;;
4839;SDS011;2434;48.486;7.964;2023-08-24T11:07:48;8.90;;;6.63;;
4839;SDS011;2434;48.486;7.964;2023-08-24T11:10:17;15.57;;;6.20;;
4839;SDS011;2434;48.486;7.964;2023-08-24T11:15:38;10.37;;;5.63;;
4839;SDS011;2434;48.486;7.964;2023-08-24T11:18:19;9.47;;;6.83;;
4839;SDS011;2434;48.486;7.964;2023-08-24T11:20:51;9.43;;;6.80;;
4839;SDS011;2434;48.486;7.964;2023-08-24T11:23:22;6.17;;;5.57;;
4839;SDS011;2434;48.486;7.964;2023-08-24T11:25:53;9.83;;;5.80;;
4839;SDS011;2434;48.486;7.964;2023-08-24T11:28:25;9.27;;;5.90;;
4839;SDS011;2434;48.486;7.964;2023-08-24T11:30:55;11.63;;;6.40;;
4839;SDS011;2434;48.486;7.964;2023-08-24T11:33:28;8.90;;;6.10;;
4839;SDS011;2434;48.486;7.964;2023-08-24T11:35:59;7.53;;;5.70;;
4839;SDS011;2434;48.486;7.964;2023-08-24T11:38:35;9.50;;;5.87;;
4839;SDS011;2434;48.486;7.964;2023-08-24T11:41:12;11.57;;;6.13;;
4839;SDS011;2434;48.486;7.964;2023-08-24T11:43:42;10.77;;;5.73;;
4839;SDS011;2434;48.486;7.964;2023-08-24T11:46:11;11.37;;;6.50;;
4839;SDS011;2434;48.486;7.964;2023-08-24T11:48:40;13.50;;;6.20;;
4839;SDS011;2434;48.486;7.964;2023-08-24T11:51:10;9.80;;;6.20;;
4839;SDS011;2434;48.486;7.964;2023-08-24T11:53:43;9.00;;;5.57;;
4839;SDS011;2434;48.486;7.964;2023-08-24T11:56:13;7.37;;;6.40;;
4839;SDS011;2434;48.486;7.964;2023-08-24T11:58:47;8.90;;;5.70;;
4839;SDS011;2434;48.486;7.964;2023-08-24T12:01:17;9.17;;;5.83;;
4839;SDS011;2434;48.486;7.964;2023-08-24T12:03:46;13.20;;;6.37;;
4839;SDS011;2434;48.486;7.964;2023-08-24T12:06:16;9.27;;;6.23;;
4839;SDS011;2434;48.486;7.964;2023-08-24T12:08:45;12.63;;;6.10;;
4839;SDS011;2434;48.486;7.964;2023-08-24T12:11:16;9.17;;;6.67;;
4839;SDS011;2434;48.486;7.964;2023-08-24T12:13:45;12.50;;;6.67;;
4839;SDS011;2434;48.486;7.964;2023-08-24T12:16:15;8.90;;;6.13;;
4839;SDS011;2434;48.486;7.964;2023-08-24T12:18:47;10.73;;;6.50;;
4839;SDS011;2434;48.486;7.964;2023-08-24T12:21:20;9.10;;;6.30;;
4839;SDS011;2434;48.486;7.964;2023-08-24T12:23:55;9.90;;;5.47;;
4839;SDS011;2434;48.486;7.964;2023-08-24T12:26:25;12.73;;;6.03;;
4839;SDS011;2434;48.486;7.964;2023-08-24T12:28:53;13.50;;;6.20;;
4839;SDS011;2434;48.486;7.964;2023-08-24T12:31:25;19.90;;;7.73;;
4839;SDS011;2434;48.486;7.964;2023-08-24T12:34:01;8.57;;;7.00;;
4839;SDS011;2434;48.486;7.964;2023-08-24T12:36:32;7.70;;;5.80;;
4839;SDS011;2434;48.486;7.964;2023-08-24T12:39:03;10.60;;;6.33;;
4839;SDS011;2434;48.486;7.964;2023-08-24T12:41:32;16.23;;;6.30;;
4839;SDS011;2434;48.486;7.964;2023-08-24T12:44:01;11.27;;;6.50;;
4839;SDS011;2434;48.486;7.964;2023-08-24T12:46:32;7.93;;;5.80;;
4839;SDS011;2434;48.486;7.964;2023-08-24T12:49:01;6.93;;;6.23;;
4839;SDS011;2434;48.486;7.964;2023-08-24T12:51:30;11.03;;;6.03;;
4839;SDS011;2434;48.486;7.964;2023-08-24T12:54:00;10.30;;;6.30;;
4839;SDS011;2434;48.486;7.964;2023-08-24T12:56:29;7.67;;;6.10;;
4839;SDS011;2434;48.486;7.964;2023-08-24T12:58:57;13.33;;;6.20;;
4839;SDS011;2434;48.486;7.964;2023-08-24T13:01:25;7.80;;;6.27;;
4839;SDS011;2434;48.486;7.964;2023-08-24T13:03:54;6.97;;;6.27;;
4839;SDS011;2434;48.486;7.964;2023-08-24T13:06:22;10.90;;;6.60;;
4839;SDS011;2434;48.486;7.964;2023-08-24T13:08:52;24.83;;;6.50;;
4839;SDS011;2434;48.486;7.964;2023-08-24T13:11:22;12.33;;;7.40;;
4839;SDS011;2434;48.486;7.964;2023-08-24T13:13:50;10.80;;;6.50;;
4839;SDS011;2434;48.486;7.964;2023-08-24T13:16:19;9.13;;;8.10;;
4839;SDS011;2434;48.486;7.964;2023-08-24T13:18:47;8.43;;;6.60;;
4839;SDS011;2434;48.486;7.964;2023-08-24T13:21:15;10.13;;;6.60;;
4839;SDS011;2434;48.486;7.964;2023-08-24T13:23:44;14.83;;;7.37;;
4839;SDS011;2434;48.486;7.964;2023-08-24T13:26:17;10.23;;;6.93;;
4839;SDS011;2434;48.486;7.964;2023-08-24T13:28:47;7.83;;;7.03;;
4839;SDS011;2434;48.486;7.964;2023-08-24T13:31:16;10.17;;;6.67;;
4839;SDS011;2434;48.486;7.964;2023-08-24T13:33:44;8.30;;;6.17;;
4839;SDS011;2434;48.486;7.964;2023-08-24T13:36:13;11.33;;;7.00;;
4839;SDS011;2434;48.486;7.964;2023-08-24T13:38:42;9.50;;;6.23;;
4839;SDS011;2434;48.486;7.964;2023-08-24T13:41:12;8.33;;;6.40;;
4839;SDS011;2434;48.486;7.964;2023-08-24T13:43:40;12.30;;;7.20;;
4839;SDS011;2434;48.486;7.964;2023-08-24T13:46:10;9.30;;;6.40;;
4839;SDS011;2434;48.486;7.964;2023-08-24T13:48:38;17.67;;;7.30;;
4839;SDS011;2434;48.486;7.964;2023-08-24T13:51:07;7.80;;;6.10;;
4839;SDS011;2434;48.486;7.964;2023-08-24T13:53:35;12.33;;;7.00;;
4839;SDS011;2434;48.486;7.964;2023-08-24T13:56:04;11.40;;;8.00;;
4839;SDS011;2434;48.486;7.964;2023-08-24T13:58:32;12.80;;;6.60;;
4839;SDS011;2434;48.486;7.964;2023-08-24T14:01:02;11.83;;;6.93;;
4839;SDS011;2434;48.486;7.964;2023-08-24T14:03:32;10.33;;;7.40;;
4839;SDS011;2434;48.486;7.964;2023-08-24T14:06:01;10.80;;;7.17;;
4839;SDS011;2434;48.486;7.964;2023-08-24T14:08:29;9.70;;;7.30;;
4839;SDS011;2434;48.486;7.964;2023-08-24T14:10:58;18.73;;;8.20;;
4839;SDS011;2434;48.486;7.964;2023-08-24T14:13:26;8.20;;;7.40;;
4839;SDS011;2434;48.486;7.964;2023-08-24T14:15:55;8.30;;;7.30;;
4839;SDS011;2434;48.486;7.964;2023-08-24T14:18:24;9.60;;;7.57;;
4839;SDS011;2434;48.486;7.964;2023-08-24T14:20:53;9.50;;;8.03;;
4839;SDS011;2434;48.486;7.964;2023-08-24T14:23:22;10.53;;;7.70;;
4839;SDS011;2434;48.486;7.964;2023-08-24T14:25:50;11.10;;;7.03;;
4839;SDS011;2434;48.486;7.964;2023-08-24T14:28:19;15.47;;;7.10;;
4839;SDS011;2434;48.486;7.964;2023-08-24T14:30:49;9.47;;;6.60;;
4839;SDS011;2434;48.486;7.964;2023-08-24T14:33:17;7.43;;;6.57;;
4839;SDS011;2434;48.486;7.964;2023-08-24T14:35:50;10.07;;;6.53;;
4839;SDS011;2434;48.486;7.964;2023-08-24T14:38:20;7.17;;;6.47;;
4839;SDS011;2434;48.486;7.964;2023-08-24T14:40:48;8.97;;;6.73;;
4839;SDS011;2434;48.486;7.964;2023-08-24T14:43:17;9.10;;;5.93;;
4839;SDS011;2434;48.486;7.964;2023-08-24T14:45:45;7.70;;;5.87;;
4839;SDS011;2434;48.486;7.964;2023-08-24T14:48:13;10.60;;;6.13;;
4839;SDS011;2434;48.486;7.964;2023-08-24T14:50:42;7.37;;;5.83;;
4839;SDS011;2434;48.486;7.964;2023-08-24T14:53:10;6.97;;;6.27;;
4839;SDS011;2434;48.486;7.964;2023-08-24T14:55:40;10.60;;;5.33;;
4839;SDS011;2434;48.486;7.964;2023-08-24T14:58:08;10.60;;;5.90;;
4839;SDS011;2434;48.486;7.964;2023-08-24T15:00:37;8.10;;;5.30;;
4839;SDS011;2434;48.486;7.964;2023-08-24T15:03:05;8.10;;;5.73;;
4839;SDS011;2434;48.486;7.964;2023-08-24T15:05:38;14.07;;;5.60;;
4839;SDS011;2434;48.486;7.964;2023-08-24T15:08:10;10.57;;;5.27;;
4839;SDS011;2434;48.486;7.964;2023-08-24T15:10:40;9.83;;;5.20;;
4839;SDS011;2434;48.486;7.964;2023-08-24T15:13:08;12.07;;;6.40;;
4839;SDS011;2434;48.486;7.964;2023-08-24T15:15:37;6.63;;;5.90;;
4839;SDS011;2434;48.486;7.964;2023-08-24T15:18:05;6.47;;;5.87;;
4839;SDS011;2434;48.486;7.964;2023-08-24T15:20:34;12.13;;;5.77;;
4839;SDS011;2434;48.486;7.964;2023-08-24T15:23:02;11.60;;;5.63;;
4839;SDS011;2434;48.486;7.964;2023-08-24T15:25:31;8.53;;;5.13;;